Centerville, Arkansas
Current Conditions -  °F | °C
As of 9:53 PM on Saturday 20 Dec 2014 (Local Time) from KRUE Reporting Station
Overcast Overcast  
Wind Chill: 44°   Ceiling: 3900
Heat Index: 44°   Visibility: 7mi
Dew Point: 41°   Wind: 0mph
Humidity: 89%   Direction: NA
Pressure: 30.22"   Gusts: NA
Location:  35.11°N, 93.17°W
Report Text: KRUE 210353Z AUTO 00000KT 7SM OVC039 07/05 A3022 RMK AO2 SLP232 T00670050
Loading
Personal Weather Stations






























Interactive Weather Map New forecast layout! Learn more

10-Day Weather Forecast

Advertisements
Track Severe Weather on mobile